sensor_id;sensor_type;location;lat;lon;timestamp;P1;durP1;ratioP1;P2;durP2;ratioP2
3257;SDS011;1641;51.306;12.384;2023-04-30T00:02:16;12.82;;;7.93;;
3257;SDS011;1641;51.306;12.384;2023-04-30T00:04:41;9.18;;;7.95;;
3257;SDS011;1641;51.306;12.384;2023-04-30T00:07:07;11.30;;;7.90;;
3257;SDS011;1641;51.306;12.384;2023-04-30T00:09:32;13.30;;;7.05;;
3257;SDS011;1641;51.306;12.384;2023-04-30T00:11:58;13.48;;;8.48;;
3257;SDS011;1641;51.306;12.384;2023-04-30T00:14:23;11.15;;;7.68;;
3257;SDS011;1641;51.306;12.384;2023-04-30T00:16:48;7.85;;;6.97;;
3257;SDS011;1641;51.306;12.384;2023-04-30T00:19:13;14.15;;;7.57;;
3257;SDS011;1641;51.306;12.384;2023-04-30T00:21:39;9.65;;;7.90;;
3257;SDS011;1641;51.306;12.384;2023-04-30T00:24:04;9.52;;;7.60;;
3257;SDS011;1641;51.306;12.384;2023-04-30T00:26:29;10.23;;;7.72;;
3257;SDS011;1641;51.306;12.384;2023-04-30T00:28:55;7.25;;;5.85;;
3257;SDS011;1641;51.306;12.384;2023-04-30T00:31:20;6.53;;;5.00;;
3257;SDS011;1641;51.306;12.384;2023-04-30T00:33:45;7.50;;;5.53;;
3257;SDS011;1641;51.306;12.384;2023-04-30T00:36:10;5.35;;;4.82;;
3257;SDS011;1641;51.306;12.384;2023-04-30T00:38:36;6.15;;;5.55;;
3257;SDS011;1641;51.306;12.384;2023-04-30T00:41:01;7.22;;;5.18;;
3257;SDS011;1641;51.306;12.384;2023-04-30T00:43:28;6.43;;;4.97;;
3257;SDS011;1641;51.306;12.384;2023-04-30T00:45:54;5.63;;;3.90;;
3257;SDS011;1641;51.306;12.384;2023-04-30T00:48:19;10.88;;;4.95;;
3257;SDS011;1641;51.306;12.384;2023-04-30T00:50:44;6.07;;;3.15;;
3257;SDS011;1641;51.306;12.384;2023-04-30T00:53:10;4.53;;;3.33;;
3257;SDS011;1641;51.306;12.384;2023-04-30T00:55:36;6.35;;;3.65;;
3257;SDS011;1641;51.306;12.384;2023-04-30T00:58:02;4.43;;;3.03;;
3257;SDS011;1641;51.306;12.384;2023-04-30T01:00:27;6.45;;;3.35;;
3257;SDS011;1641;51.306;12.384;2023-04-30T01:02:54;6.15;;;3.65;;
3257;SDS011;1641;51.306;12.384;2023-04-30T01:05:20;5.00;;;2.55;;
3257;SDS011;1641;51.306;12.384;2023-04-30T01:07:46;3.30;;;2.95;;
3257;SDS011;1641;51.306;12.384;2023-04-30T01:10:13;5.57;;;2.90;;
3257;SDS011;1641;51.306;12.384;2023-04-30T01:12:58;10.32;;;3.22;;
3257;SDS011;1641;51.306;12.384;2023-04-30T01:15:35;5.60;;;3.17;;
3257;SDS011;1641;51.306;12.384;2023-04-30T01:18:12;4.82;;;3.28;;
3257;SDS011;1641;51.306;12.384;2023-04-30T01:20:43;5.43;;;3.05;;
3257;SDS011;1641;51.306;12.384;2023-04-30T01:28:44;5.57;;;3.17;;
3257;SDS011;1641;51.306;12.384;2023-04-30T01:31:14;6.28;;;3.20;;
3257;SDS011;1641;51.306;12.384;2023-04-30T01:33:40;6.18;;;3.90;;
3257;SDS011;1641;51.306;12.384;2023-04-30T01:36:16;5.43;;;3.72;;
3257;SDS011;1641;51.306;12.384;2023-04-30T01:41:54;6.47;;;3.60;;
3257;SDS011;1641;51.306;12.384;2023-04-30T01:47:25;7.38;;;3.60;;
3257;SDS011;1641;51.306;12.384;2023-04-30T01:53:01;6.85;;;3.33;;
3257;SDS011;1641;51.306;12.384;2023-04-30T01:55:42;4.65;;;3.90;;
3257;SDS011;1641;51.306;12.384;2023-04-30T01:58:18;7.13;;;4.13;;
3257;SDS011;1641;51.306;12.384;2023-04-30T02:00:46;5.85;;;3.65;;
3257;SDS011;1641;51.306;12.384;2023-04-30T02:03:11;4.65;;;3.05;;
3257;SDS011;1641;51.306;12.384;2023-04-30T02:05:37;10.77;;;4.80;;
3257;SDS011;1641;51.306;12.384;2023-04-30T02:08:02;9.38;;;3.42;;
3257;SDS011;1641;51.306;12.384;2023-04-30T02:10:27;7.28;;;3.35;;
3257;SDS011;1641;51.306;12.384;2023-04-30T02:12:54;5.55;;;3.53;;
3257;SDS011;1641;51.306;12.384;2023-04-30T02:15:19;6.00;;;3.40;;
3257;SDS011;1641;51.306;12.384;2023-04-30T02:17:45;7.50;;;3.50;;
3257;SDS011;1641;51.306;12.384;2023-04-30T02:20:10;11.52;;;4.38;;
3257;SDS011;1641;51.306;12.384;2023-04-30T02:22:36;6.63;;;3.78;;
3257;SDS011;1641;51.306;12.384;2023-04-30T02:25:01;11.80;;;6.32;;
3257;SDS011;1641;51.306;12.384;2023-04-30T02:27:29;5.90;;;3.38;;
3257;SDS011;1641;51.306;12.384;2023-04-30T02:29:55;8.15;;;3.45;;
3257;SDS011;1641;51.306;12.384;2023-04-30T02:32:21;7.03;;;3.75;;
3257;SDS011;1641;51.306;12.384;2023-04-30T02:34:46;5.90;;;3.55;;
3257;SDS011;1641;51.306;12.384;2023-04-30T02:37:12;6.05;;;3.45;;
3257;SDS011;1641;51.306;12.384;2023-04-30T02:39:37;7.47;;;3.33;;
3257;SDS011;1641;51.306;12.384;2023-04-30T02:42:02;15.05;;;3.38;;
3257;SDS011;1641;51.306;12.384;2023-04-30T02:44:32;9.13;;;4.90;;
3257;SDS011;1641;51.306;12.384;2023-04-30T02:46:58;6.13;;;4.40;;
3257;SDS011;1641;51.306;12.384;2023-04-30T02:49:23;11.10;;;4.30;;
3257;SDS011;1641;51.306;12.384;2023-04-30T02:51:48;7.38;;;4.45;;
3257;SDS011;1641;51.306;12.384;2023-04-30T02:54:14;5.50;;;3.97;;
3257;SDS011;1641;51.306;12.384;2023-04-30T02:56:39;7.18;;;4.53;;
3257;SDS011;1641;51.306;12.384;2023-04-30T02:59:04;13.32;;;4.93;;
3257;SDS011;1641;51.306;12.384;2023-04-30T03:01:30;9.35;;;4.63;;
3257;SDS011;1641;51.306;12.384;2023-04-30T03:03:55;11.00;;;4.70;;
3257;SDS011;1641;51.306;12.384;2023-04-30T03:06:22;12.73;;;5.10;;
3257;SDS011;1641;51.306;12.384;2023-04-30T03:08:50;9.95;;;4.85;;
3257;SDS011;1641;51.306;12.384;2023-04-30T03:11:15;7.20;;;4.72;;
3257;SDS011;1641;51.306;12.384;2023-04-30T03:13:41;9.43;;;4.40;;
3257;SDS011;1641;51.306;12.384;2023-04-30T03:16:07;14.45;;;4.90;;
3257;SDS011;1641;51.306;12.384;2023-04-30T03:18:32;10.27;;;4.75;;
3257;SDS011;1641;51.306;12.384;2023-04-30T03:20:57;11.70;;;5.13;;
3257;SDS011;1641;51.306;12.384;2023-04-30T03:23:23;9.57;;;5.10;;
3257;SDS011;1641;51.306;12.384;2023-04-30T03:25:48;9.50;;;4.90;;
3257;SDS011;1641;51.306;12.384;2023-04-30T03:28:14;13.80;;;4.93;;
3257;SDS011;1641;51.306;12.384;2023-04-30T03:30:42;11.13;;;4.95;;
3257;SDS011;1641;51.306;12.384;2023-04-30T03:33:08;10.88;;;5.03;;
3257;SDS011;1641;51.306;12.384;2023-04-30T03:35:33;9.15;;;5.05;;
3257;SDS011;1641;51.306;12.384;2023-04-30T03:37:59;11.00;;;5.32;;
3257;SDS011;1641;51.306;12.384;2023-04-30T03:40:25;7.38;;;4.90;;
3257;SDS011;1641;51.306;12.384;2023-04-30T03:42:50;11.30;;;5.30;;
3257;SDS011;1641;51.306;12.384;2023-04-30T03:45:16;9.25;;;5.93;;
3257;SDS011;1641;51.306;12.384;2023-04-30T03:47:41;7.53;;;5.13;;
3257;SDS011;1641;51.306;12.384;2023-04-30T03:50:07;10.00;;;5.70;;
3257;SDS011;1641;51.306;12.384;2023-04-30T03:52:33;8.63;;;6.50;;
3257;SDS011;1641;51.306;12.384;2023-04-30T03:54:58;11.95;;;6.75;;
3257;SDS011;1641;51.306;12.384;2023-04-30T03:57:23;13.43;;;5.75;;
3257;SDS011;1641;51.306;12.384;2023-04-30T03:59:49;11.68;;;5.90;;
3257;SDS011;1641;51.306;12.384;2023-04-30T04:02:14;17.02;;;5.75;;
3257;SDS011;1641;51.306;12.384;2023-04-30T04:04:40;8.27;;;5.35;;
3257;SDS011;1641;51.306;12.384;2023-04-30T04:07:06;11.15;;;5.20;;
3257;SDS011;1641;51.306;12.384;2023-04-30T04:09:33;8.77;;;5.88;;
3257;SDS011;1641;51.306;12.384;2023-04-30T04:11:59;9.18;;;5.60;;
3257;SDS011;1641;51.306;12.384;2023-04-30T04:14:25;8.68;;;4.97;;
3257;SDS011;1641;51.306;12.384;2023-04-30T04:16:50;11.95;;;5.80;;
3257;SDS011;1641;51.306;12.384;2023-04-30T04:19:17;10.13;;;5.53;;
3257;SDS011;1641;51.306;12.384;2023-04-30T04:21:42;7.53;;;5.38;;
3257;SDS011;1641;51.306;12.384;2023-04-30T04:24:10;9.70;;;5.10;;
3257;SDS011;1641;51.306;12.384;2023-04-30T04:26:36;14.80;;;6.03;;
3257;SDS011;1641;51.306;12.384;2023-04-30T04:29:04;11.50;;;5.63;;
3257;SDS011;1641;51.306;12.384;2023-04-30T04:31:30;11.30;;;4.90;;
3257;SDS011;1641;51.306;12.384;2023-04-30T04:33:59;9.70;;;5.80;;
3257;SDS011;1641;51.306;12.384;2023-04-30T04:36:28;12.43;;;5.85;;
3257;SDS011;1641;51.306;12.384;2023-04-30T04:38:55;18.70;;;5.50;;
3257;SDS011;1641;51.306;12.384;2023-04-30T04:43:55;15.27;;;5.60;;
3257;SDS011;1641;51.306;12.384;2023-04-30T04:46:20;11.80;;;5.35;;
3257;SDS011;1641;51.306;12.384;2023-04-30T04:48:46;13.88;;;5.47;;
3257;SDS011;1641;51.306;12.384;2023-04-30T04:51:11;12.45;;;5.60;;
3257;SDS011;1641;51.306;12.384;2023-04-30T04:53:37;11.18;;;5.75;;
3257;SDS011;1641;51.306;12.384;2023-04-30T04:56:02;12.75;;;4.88;;
3257;SDS011;1641;51.306;12.384;2023-04-30T04:58:28;9.38;;;4.65;;
3257;SDS011;1641;51.306;12.384;2023-04-30T05:00:53;10.55;;;4.90;;
3257;SDS011;1641;51.306;12.384;2023-04-30T05:03:18;13.23;;;5.90;;
3257;SDS011;1641;51.306;12.384;2023-04-30T05:05:45;13.43;;;5.10;;
3257;SDS011;1641;51.306;12.384;2023-04-30T05:08:10;8.65;;;4.35;;
3257;SDS011;1641;51.306;12.384;2023-04-30T05:10:35;12.70;;;5.90;;
3257;SDS011;1641;51.306;12.384;2023-04-30T05:13:01;9.10;;;3.83;;
3257;SDS011;1641;51.306;12.384;2023-04-30T05:15:26;11.75;;;4.32;;
3257;SDS011;1641;51.306;12.384;2023-04-30T05:17:51;10.65;;;4.72;;
3257;SDS011;1641;51.306;12.384;2023-04-30T05:20:16;11.55;;;5.15;;
3257;SDS011;1641;51.306;12.384;2023-04-30T05:22:42;14.55;;;5.18;;
3257;SDS011;1641;51.306;12.384;2023-04-30T05:25:08;7.32;;;4.82;;
3257;SDS011;1641;51.306;12.384;2023-04-30T05:27:33;6.70;;;3.53;;
3257;SDS011;1641;51.306;12.384;2023-04-30T05:29:58;13.45;;;4.07;;
3257;SDS011;1641;51.306;12.384;2023-04-30T05:32:27;15.20;;;5.95;;
3257;SDS011;1641;51.306;12.384;2023-04-30T05:34:52;8.00;;;2.80;;
3257;SDS011;1641;51.306;12.384;2023-04-30T05:37:17;8.60;;;3.83;;
3257;SDS011;1641;51.306;12.384;2023-04-30T05:39:44;11.23;;;5.40;;
3257;SDS011;1641;51.306;12.384;2023-04-30T05:42:12;8.75;;;4.43;;
3257;SDS011;1641;51.306;12.384;2023-04-30T05:44:38;12.45;;;6.75;;
3257;SDS011;1641;51.306;12.384;2023-04-30T05:47:03;8.82;;;3.75;;
3257;SDS011;1641;51.306;12.384;2023-04-30T05:49:29;6.95;;;4.43;;
3257;SDS011;1641;51.306;12.384;2023-04-30T05:51:54;9.27;;;3.58;;
3257;SDS011;1641;51.306;12.384;2023-04-30T05:54:19;10.88;;;3.55;;
3257;SDS011;1641;51.306;12.384;2023-04-30T05:56:44;9.43;;;4.45;;
3257;SDS011;1641;51.306;12.384;2023-04-30T05:59:10;5.90;;;3.10;;
3257;SDS011;1641;51.306;12.384;2023-04-30T06:01:35;12.23;;;3.38;;
3257;SDS011;1641;51.306;12.384;2023-04-30T06:04:00;6.78;;;3.08;;
3257;SDS011;1641;51.306;12.384;2023-04-30T06:06:27;11.38;;;4.15;;
3257;SDS011;1641;51.306;12.384;2023-04-30T06:08:53;8.50;;;3.38;;
3257;SDS011;1641;51.306;12.384;2023-04-30T06:11:18;6.95;;;1.98;;
3257;SDS011;1641;51.306;12.384;2023-04-30T06:13:46;10.13;;;4.20;;
3257;SDS011;1641;51.306;12.384;2023-04-30T06:16:11;11.80;;;3.20;;
3257;SDS011;1641;51.306;12.384;2023-04-30T06:18:36;9.85;;;2.60;;
3257;SDS011;1641;51.306;12.384;2023-04-30T06:21:02;8.05;;;2.80;;
3257;SDS011;1641;51.306;12.384;2023-04-30T06:23:27;13.13;;;3.40;;
3257;SDS011;1641;51.306;12.384;2023-04-30T06:25:52;7.53;;;2.60;;
3257;SDS011;1641;51.306;12.384;2023-04-30T06:28:18;10.20;;;3.00;;
3257;SDS011;1641;51.306;12.384;2023-04-30T06:30:43;11.88;;;5.95;;
3257;SDS011;1641;51.306;12.384;2023-04-30T06:33:08;7.53;;;2.28;;
3257;SDS011;1641;51.306;12.384;2023-04-30T06:35:34;9.60;;;2.95;;
3257;SDS011;1641;51.306;12.384;2023-04-30T06:37:59;8.15;;;3.42;;
3257;SDS011;1641;51.306;12.384;2023-04-30T06:40:25;11.05;;;3.03;;
3257;SDS011;1641;51.306;12.384;2023-04-30T06:42:50;7.38;;;3.40;;
3257;SDS011;1641;51.306;12.384;2023-04-30T06:45:15;7.07;;;4.28;;
3257;SDS011;1641;51.306;12.384;2023-04-30T06:47:41;5.72;;;2.90;;
3257;SDS011;1641;51.306;12.384;2023-04-30T06:50:07;8.65;;;2.42;;
3257;SDS011;1641;51.306;12.384;2023-04-30T06:52:32;12.27;;;3.22;;
3257;SDS011;1641;51.306;12.384;2023-04-30T06:54:58;8.30;;;2.90;;
3257;SDS011;1641;51.306;12.384;2023-04-30T06:57:23;14.48;;;6.25;;
3257;SDS011;1641;51.306;12.384;2023-04-30T06:59:49;9.40;;;2.92;;
3257;SDS011;1641;51.306;12.384;2023-04-30T07:02:14;5.35;;;2.65;;
3257;SDS011;1641;51.306;12.384;2023-04-30T07:04:40;7.68;;;2.55;;
3257;SDS011;1641;51.306;12.384;2023-04-30T07:07:05;12.13;;;4.78;;
3257;SDS011;1641;51.306;12.384;2023-04-30T07:09:31;6.22;;;3.10;;
3257;SDS011;1641;51.306;12.384;2023-04-30T07:11:56;6.65;;;2.65;;
3257;SDS011;1641;51.306;12.384;2023-04-30T07:14:22;9.65;;;3.55;;
3257;SDS011;1641;51.306;12.384;2023-04-30T07:16:51;8.68;;;3.33;;
3257;SDS011;1641;51.306;12.384;2023-04-30T07:19:17;8.82;;;2.60;;
3257;SDS011;1641;51.306;12.384;2023-04-30T07:21:42;9.85;;;3.80;;
3257;SDS011;1641;51.306;12.384;2023-04-30T07:24:08;7.40;;;2.67;;
3257;SDS011;1641;51.306;12.384;2023-04-30T07:26:33;5.82;;;2.85;;
3257;SDS011;1641;51.306;12.384;2023-04-30T07:28:58;6.63;;;2.47;;
3257;SDS011;1641;51.306;12.384;2023-04-30T07:31:23;9.02;;;2.72;;
3257;SDS011;1641;51.306;12.384;2023-04-30T07:33:49;7.70;;;3.08;;
3257;SDS011;1641;51.306;12.384;2023-04-30T07:36:15;14.45;;;3.03;;
3257;SDS011;1641;51.306;12.384;2023-04-30T07:38:41;9.00;;;2.97;;
3257;SDS011;1641;51.306;12.384;2023-04-30T07:41:06;6.93;;;2.90;;
3257;SDS011;1641;51.306;12.384;2023-04-30T07:43:33;4.90;;;2.90;;
3257;SDS011;1641;51.306;12.384;2023-04-30T07:45:59;10.38;;;3.13;;
3257;SDS011;1641;51.306;12.384;2023-04-30T07:48:24;13.90;;;3.95;;
3257;SDS011;1641;51.306;12.384;2023-04-30T07:50:49;8.60;;;3.90;;
3257;SDS011;1641;51.306;12.384;2023-04-30T07:53:15;11.07;;;3.40;;
3257;SDS011;1641;51.306;12.384;2023-04-30T07:55:40;3.65;;;2.42;;
3257;SDS011;1641;51.306;12.384;2023-04-30T07:58:05;6.20;;;2.50;;
3257;SDS011;1641;51.306;12.384;2023-04-30T08:00:31;8.18;;;2.72;;
3257;SDS011;1641;51.306;12.384;2023-04-30T08:02:56;7.35;;;2.53;;
3257;SDS011;1641;51.306;12.384;2023-04-30T08:05:22;6.82;;;3.20;;
3257;SDS011;1641;51.306;12.384;2023-04-30T08:07:48;6.30;;;3.00;;
3257;SDS011;1641;51.306;12.384;2023-04-30T08:10:13;6.72;;;2.83;;
3257;SDS011;1641;51.306;12.384;2023-04-30T08:12:38;7.80;;;2.70;;
3257;SDS011;1641;51.306;12.384;2023-04-30T08:15:04;7.10;;;2.60;;
3257;SDS011;1641;51.306;12.384;2023-04-30T08:17:31;7.22;;;3.00;;
3257;SDS011;1641;51.306;12.384;2023-04-30T08:19:57;10.05;;;3.88;;
3257;SDS011;1641;51.306;12.384;2023-04-30T08:22:22;7.32;;;2.67;;
3257;SDS011;1641;51.306;12.384;2023-04-30T08:24:48;6.22;;;3.15;;
3257;SDS011;1641;51.306;12.384;2023-04-30T08:27:13;5.07;;;2.20;;
3257;SDS011;1641;51.306;12.384;2023-04-30T08:29:39;7.65;;;2.03;;
3257;SDS011;1641;51.306;12.384;2023-04-30T08:32:05;9.48;;;3.25;;
3257;SDS011;1641;51.306;12.384;2023-04-30T08:34:30;5.10;;;2.28;;
3257;SDS011;1641;51.306;12.384;2023-04-30T08:36:56;12.45;;;2.88;;
3257;SDS011;1641;51.306;12.384;2023-04-30T08:39:21;12.45;;;3.20;;
3257;SDS011;1641;51.306;12.384;2023-04-30T08:41:46;6.32;;;2.25;;
3257;SDS011;1641;51.306;12.384;2023-04-30T08:44:23;5.35;;;2.38;;
3257;SDS011;1641;51.306;12.384;2023-04-30T08:46:53;10.15;;;3.88;;
3257;SDS011;1641;51.306;12.384;2023-04-30T08:49:20;8.50;;;2.60;;
3257;SDS011;1641;51.306;12.384;2023-04-30T08:51:46;4.97;;;2.30;;
3257;SDS011;1641;51.306;12.384;2023-04-30T08:54:11;4.38;;;2.63;;
3257;SDS011;1641;51.306;12.384;2023-04-30T08:56:38;9.82;;;2.50;;
3257;SDS011;1641;51.306;12.384;2023-04-30T08:59:04;7.20;;;2.78;;
3257;SDS011;1641;51.306;12.384;2023-04-30T09:01:30;9.95;;;3.92;;
3257;SDS011;1641;51.306;12.384;2023-04-30T09:03:56;9.90;;;2.90;;
3257;SDS011;1641;51.306;12.384;2023-04-30T09:06:21;13.18;;;2.45;;
3257;SDS011;1641;51.306;12.384;2023-04-30T09:08:47;7.70;;;2.72;;
3257;SDS011;1641;51.306;12.384;2023-04-30T09:11:46;6.35;;;3.00;;
3257;SDS011;1641;51.306;12.384;2023-04-30T09:14:08;13.35;;;3.38;;
3257;SDS011;1641;51.306;12.384;2023-04-30T09:16:44;9.13;;;2.60;;
3257;SDS011;1641;51.306;12.384;2023-04-30T09:19:27;4.55;;;1.98;;
3257;SDS011;1641;51.306;12.384;2023-04-30T09:21:56;5.65;;;2.40;;
3257;SDS011;1641;51.306;12.384;2023-04-30T09:24:22;6.28;;;1.95;;
3257;SDS011;1641;51.306;12.384;2023-04-30T09:26:49;5.88;;;2.10;;
3257;SDS011;1641;51.306;12.384;2023-04-30T09:29:15;4.50;;;1.75;;
3257;SDS011;1641;51.306;12.384;2023-04-30T09:31:44;4.05;;;1.65;;
3257;SDS011;1641;51.306;12.384;2023-04-30T09:34:11;3.42;;;1.30;;
3257;SDS011;1641;51.306;12.384;2023-04-30T09:36:37;2.17;;;1.25;;
3257;SDS011;1641;51.306;12.384;2023-04-30T09:39:17;4.63;;;2.85;;
3257;SDS011;1641;51.306;12.384;2023-04-30T09:41:45;5.03;;;1.98;;
3257;SDS011;1641;51.306;12.384;2023-04-30T09:44:26;2.97;;;1.60;;
3257;SDS011;1641;51.306;12.384;2023-04-30T09:46:53;3.35;;;1.38;;
3257;SDS011;1641;51.306;12.384;2023-04-30T09:49:23;4.38;;;1.70;;
3257;SDS011;1641;51.306;12.384;2023-04-30T09:51:56;4.97;;;1.92;;
3257;SDS011;1641;51.306;12.384;2023-04-30T09:54:26;2.47;;;1.30;;
3257;SDS011;1641;51.306;12.384;2023-04-30T09:56:56;4.20;;;1.75;;
3257;SDS011;1641;51.306;12.384;2023-04-30T09:59:24;5.03;;;1.60;;
3257;SDS011;1641;51.306;12.384;2023-04-30T10:01:54;4.60;;;1.90;;
3257;SDS011;1641;51.306;12.384;2023-04-30T10:04:23;4.75;;;1.80;;
3257;SDS011;1641;51.306;12.384;2023-04-30T10:06:50;3.05;;;1.77;;
3257;SDS011;1641;51.306;12.384;2023-04-30T10:09:18;4.00;;;2.00;;
3257;SDS011;1641;51.306;12.384;2023-04-30T10:11:44;3.35;;;1.95;;
3257;SDS011;1641;51.306;12.384;2023-04-30T10:14:10;4.93;;;2.20;;
3257;SDS011;1641;51.306;12.384;2023-04-30T10:16:46;2.08;;;1.52;;
3257;SDS011;1641;51.306;12.384;2023-04-30T10:19:32;5.65;;;1.90;;
3257;SDS011;1641;51.306;12.384;2023-04-30T10:22:00;4.38;;;2.03;;
3257;SDS011;1641;51.306;12.384;2023-04-30T10:24:26;4.20;;;1.98;;
3257;SDS011;1641;51.306;12.384;2023-04-30T10:26:51;4.75;;;1.65;;
3257;SDS011;1641;51.306;12.384;2023-04-30T10:29:16;6.15;;;1.80;;
3257;SDS011;1641;51.306;12.384;2023-04-30T10:31:44;6.07;;;2.30;;
3257;SDS011;1641;51.306;12.384;2023-04-30T10:34:21;6.68;;;2.17;;
3257;SDS011;1641;51.306;12.384;2023-04-30T10:36:59;5.22;;;1.85;;
3257;SDS011;1641;51.306;12.384;2023-04-30T10:39:31;6.45;;;2.60;;
3257;SDS011;1641;51.306;12.384;2023-04-30T10:42:05;5.38;;;1.92;;
3257;SDS011;1641;51.306;12.384;2023-04-30T10:44:37;6.13;;;2.63;;
3257;SDS011;1641;51.306;12.384;2023-04-30T10:47:03;4.07;;;1.92;;
3257;SDS011;1641;51.306;12.384;2023-04-30T10:49:29;10.45;;;2.40;;
3257;SDS011;1641;51.306;12.384;2023-04-30T10:51:58;7.72;;;1.85;;
3257;SDS011;1641;51.306;12.384;2023-04-30T10:54:28;8.85;;;2.63;;
3257;SDS011;1641;51.306;12.384;2023-04-30T10:57:13;4.20;;;1.90;;
3257;SDS011;1641;51.306;12.384;2023-04-30T11:00:24;5.00;;;2.58;;
3257;SDS011;1641;51.306;12.384;2023-04-30T11:02:43;3.08;;;2.20;;
3257;SDS011;1641;51.306;12.384;2023-04-30T11:05:17;6.10;;;2.45;;
3257;SDS011;1641;51.306;12.384;2023-04-30T11:07:56;5.05;;;2.47;;
3257;SDS011;1641;51.306;12.384;2023-04-30T11:10:22;3.55;;;2.15;;
3257;SDS011;1641;51.306;12.384;2023-04-30T11:12:50;4.45;;;2.03;;
3257;SDS011;1641;51.306;12.384;2023-04-30T11:15:17;7.85;;;2.95;;
3257;SDS011;1641;51.306;12.384;2023-04-30T11:17:44;6.40;;;2.90;;
3257;SDS011;1641;51.306;12.384;2023-04-30T11:20:15;5.32;;;2.67;;
3257;SDS011;1641;51.306;12.384;2023-04-30T11:22:44;10.32;;;5.63;;
3257;SDS011;1641;51.306;12.384;2023-04-30T11:25:10;4.03;;;2.17;;
3257;SDS011;1641;51.306;12.384;2023-04-30T11:27:37;6.82;;;2.58;;
3257;SDS011;1641;51.306;12.384;2023-04-30T11:30:09;5.40;;;2.25;;
3257;SDS011;1641;51.306;12.384;2023-04-30T11:32:38;3.30;;;2.10;;
3257;SDS011;1641;51.306;12.384;2023-04-30T11:35:05;4.10;;;1.75;;
3257;SDS011;1641;51.306;12.384;2023-04-30T11:37:31;7.47;;;2.30;;
3257;SDS011;1641;51.306;12.384;2023-04-30T11:40:02;2.50;;;1.65;;
3257;SDS011;1641;51.306;12.384;2023-04-30T11:42:32;5.40;;;1.80;;
3257;SDS011;1641;51.306;12.384;2023-04-30T11:45:01;7.32;;;3.00;;
3257;SDS011;1641;51.306;12.384;2023-04-30T11:47:43;5.80;;;2.53;;
3257;SDS011;1641;51.306;12.384;2023-04-30T11:50:19;4.13;;;2.03;;
3257;SDS011;1641;51.306;12.384;2023-04-30T11:52:51;7.70;;;2.30;;
3257;SDS011;1641;51.306;12.384;2023-04-30T11:55:19;4.85;;;2.30;;
3257;SDS011;1641;51.306;12.384;2023-04-30T11:57:47;5.25;;;2.25;;
3257;SDS011;1641;51.306;12.384;2023-04-30T12:00:17;4.68;;;2.08;;
3257;SDS011;1641;51.306;12.384;2023-04-30T12:02:51;4.90;;;2.67;;
3257;SDS011;1641;51.306;12.384;2023-04-30T12:05:18;4.45;;;2.15;;
3257;SDS011;1641;51.306;12.384;2023-04-30T12:07:48;4.85;;;2.20;;
3257;SDS011;1641;51.306;12.384;2023-04-30T12:10:19;4.00;;;1.58;;
3257;SDS011;1641;51.306;12.384;2023-04-30T12:12:46;3.70;;;1.95;;
3257;SDS011;1641;51.306;12.384;2023-04-30T12:15:16;7.15;;;2.17;;
3257;SDS011;1641;51.306;12.384;2023-04-30T12:17:43;4.43;;;1.98;;
3257;SDS011;1641;51.306;12.384;2023-04-30T12:20:10;4.75;;;1.80;;
3257;SDS011;1641;51.306;12.384;2023-04-30T12:22:39;2.53;;;1.98;;
3257;SDS011;1641;51.306;12.384;2023-04-30T12:25:06;5.97;;;3.25;;
3257;SDS011;1641;51.306;12.384;2023-04-30T12:27:34;3.67;;;1.90;;
3257;SDS011;1641;51.306;12.384;2023-04-30T12:30:04;6.45;;;3.90;;
3257;SDS011;1641;51.306;12.384;2023-04-30T12:32:35;8.23;;;2.80;;
3257;SDS011;1641;51.306;12.384;2023-04-30T12:35:02;3.70;;;2.30;;
3257;SDS011;1641;51.306;12.384;2023-04-30T12:37:29;3.15;;;2.17;;
3257;SDS011;1641;51.306;12.384;2023-04-30T12:39:54;3.47;;;2.10;;
3257;SDS011;1641;51.306;12.384;2023-04-30T12:42:20;3.10;;;1.67;;
3257;SDS011;1641;51.306;12.384;2023-04-30T12:44:45;9.93;;;5.20;;
3257;SDS011;1641;51.306;12.384;2023-04-30T12:47:10;6.28;;;2.30;;
3257;SDS011;1641;51.306;12.384;2023-04-30T12:49:37;6.20;;;2.35;;
3257;SDS011;1641;51.306;12.384;2023-04-30T12:52:09;5.32;;;2.03;;
3257;SDS011;1641;51.306;12.384;2023-04-30T12:54:36;6.22;;;2.47;;
3257;SDS011;1641;51.306;12.384;2023-04-30T12:59:29;6.68;;;2.88;;
3257;SDS011;1641;51.306;12.384;2023-04-30T13:02:04;4.70;;;2.17;;
3257;SDS011;1641;51.306;12.384;2023-04-30T13:04:33;6.90;;;2.58;;
3257;SDS011;1641;51.306;12.384;2023-04-30T13:06:59;4.97;;;2.85;;
3257;SDS011;1641;51.306;12.384;2023-04-30T13:09:25;5.03;;;2.22;;
3257;SDS011;1641;51.306;12.384;2023-04-30T13:11:50;2.55;;;1.98;;
3257;SDS011;1641;51.306;12.384;2023-04-30T13:14:17;1.95;;;1.25;;
3257;SDS011;1641;51.306;12.384;2023-04-30T13:16:42;2.83;;;1.50;;
3257;SDS011;1641;51.306;12.384;2023-04-30T13:19:08;4.85;;;2.10;;
3257;SDS011;1641;51.306;12.384;2023-04-30T13:21:33;6.75;;;2.92;;
3257;SDS011;1641;51.306;12.384;2023-04-30T13:23:58;6.40;;;2.15;;
3257;SDS011;1641;51.306;12.384;2023-04-30T13:26:24;4.63;;;1.80;;
3257;SDS011;1641;51.306;12.384;2023-04-30T13:28:50;5.20;;;2.22;;
3257;SDS011;1641;51.306;12.384;2023-04-30T13:31:15;6.63;;;2.95;;
3257;SDS011;1641;51.306;12.384;2023-04-30T13:33:41;4.78;;;2.20;;
3257;SDS011;1641;51.306;12.384;2023-04-30T13:36:06;6.32;;;2.17;;
3257;SDS011;1641;51.306;12.384;2023-04-30T13:38:31;4.63;;;1.90;;
3257;SDS011;1641;51.306;12.384;2023-04-30T13:40:56;3.90;;;1.75;;
3257;SDS011;1641;51.306;12.384;2023-04-30T13:43:22;5.40;;;2.30;;
3257;SDS011;1641;51.306;12.384;2023-04-30T13:45:47;5.00;;;2.22;;
3257;SDS011;1641;51.306;12.384;2023-04-30T13:48:12;6.50;;;2.70;;
3257;SDS011;1641;51.306;12.384;2023-04-30T13:50:37;6.05;;;3.20;;
3257;SDS011;1641;51.306;12.384;2023-04-30T13:53:03;7.03;;;3.05;;
3257;SDS011;1641;51.306;12.384;2023-04-30T13:55:28;9.07;;;2.55;;
3257;SDS011;1641;51.306;12.384;2023-04-30T13:57:53;5.82;;;2.72;;
3257;SDS011;1641;51.306;12.384;2023-04-30T14:00:19;5.72;;;2.97;;
3257;SDS011;1641;51.306;12.384;2023-04-30T14:02:46;9.25;;;3.17;;
3257;SDS011;1641;51.306;12.384;2023-04-30T14:05:11;5.55;;;2.60;;
3257;SDS011;1641;51.306;12.384;2023-04-30T14:07:36;5.22;;;2.35;;
3257;SDS011;1641;51.306;12.384;2023-04-30T14:10:01;4.40;;;2.47;;
3257;SDS011;1641;51.306;12.384;2023-04-30T14:12:27;5.78;;;2.53;;
3257;SDS011;1641;51.306;12.384;2023-04-30T14:14:54;5.72;;;2.88;;
3257;SDS011;1641;51.306;12.384;2023-04-30T14:17:20;5.97;;;2.10;;
3257;SDS011;1641;51.306;12.384;2023-04-30T14:19:45;6.07;;;1.92;;
3257;SDS011;1641;51.306;12.384;2023-04-30T14:22:11;6.43;;;2.42;;
3257;SDS011;1641;51.306;12.384;2023-04-30T14:24:36;6.10;;;2.45;;
3257;SDS011;1641;51.306;12.384;2023-04-30T14:27:02;6.05;;;2.80;;
3257;SDS011;1641;51.306;12.384;2023-04-30T14:29:28;4.47;;;2.30;;
3257;SDS011;1641;51.306;12.384;2023-04-30T14:31:53;4.95;;;2.15;;
3257;SDS011;1641;51.306;12.384;2023-04-30T14:34:18;5.93;;;2.65;;
3257;SDS011;1641;51.306;12.384;2023-04-30T14:36:44;6.05;;;2.45;;
3257;SDS011;1641;51.306;12.384;2023-04-30T14:39:09;4.43;;;2.40;;
3257;SDS011;1641;51.306;12.384;2023-04-30T14:41:35;3.63;;;2.10;;
3257;SDS011;1641;51.306;12.384;2023-04-30T14:44:00;6.70;;;2.63;;
3257;SDS011;1641;51.306;12.384;2023-04-30T14:46:26;7.35;;;2.83;;
3257;SDS011;1641;51.306;12.384;2023-04-30T14:48:51;13.93;;;7.38;;
3257;SDS011;1641;51.306;12.384;2023-04-30T14:51:18;4.57;;;3.00;;
3257;SDS011;1641;51.306;12.384;2023-04-30T14:53:43;4.25;;;1.98;;
3257;SDS011;1641;51.306;12.384;2023-04-30T14:56:08;5.65;;;2.58;;
3257;SDS011;1641;51.306;12.384;2023-04-30T14:58:34;11.52;;;2.63;;
3257;SDS011;1641;51.306;12.384;2023-04-30T15:00:59;4.28;;;1.70;;
3257;SDS011;1641;51.306;12.384;2023-04-30T15:03:25;3.42;;;1.95;;
3257;SDS011;1641;51.306;12.384;2023-04-30T15:05:50;4.68;;;1.75;;
3257;SDS011;1641;51.306;12.384;2023-04-30T15:08:15;5.10;;;2.25;;
3257;SDS011;1641;51.306;12.384;2023-04-30T15:10:41;3.58;;;1.77;;
3257;SDS011;1641;51.306;12.384;2023-04-30T15:13:06;3.42;;;1.80;;
3257;SDS011;1641;51.306;12.384;2023-04-30T15:15:32;4.13;;;1.77;;
3257;SDS011;1641;51.306;12.384;2023-04-30T15:17:57;4.70;;;1.80;;